createdAt,value
2019-03-26T00:01:03.152Z,100176.34
2019-03-26T00:03:32.575Z,100178.14
2019-03-26T00:06:02.208Z,100191.67
2019-03-26T00:08:31.627Z,100184.77
2019-03-26T00:11:01.037Z,100190.95
2019-03-26T00:13:30.480Z,100197.50
2019-03-26T00:15:59.965Z,100199.69
2019-03-26T00:18:29.456Z,100202.27
2019-03-26T00:20:58.984Z,100200.09
2019-03-26T00:23:28.436Z,100200.06
2019-03-26T00:25:57.904Z,100199.19
2019-03-26T00:28:27.415Z,100202.58
2019-03-26T00:30:56.868Z,100207.32
2019-03-26T00:33:35.689Z,100213.83
2019-03-26T00:35:57.500Z,100206.37
2019-03-26T00:38:27.002Z,100210.73
2019-03-26T00:40:56.425Z,100213.41
2019-03-26T00:43:25.937Z,100209.08
2019-03-26T00:45:55.441Z,100220.42
2019-03-26T00:48:25.019Z,100231.32
2019-03-26T00:50:54.432Z,100234.79
2019-03-26T00:53:24.163Z,100244.34
2019-03-26T00:55:53.590Z,100243.03
2019-03-26T00:58:23.096Z,100247.37
2019-03-26T01:00:52.561Z,100242.58
2019-03-26T01:03:23.107Z,100248.66
2019-03-26T01:05:52.600Z,100248.66
2019-03-26T01:08:22.180Z,100258.23
2019-03-26T01:10:55.255Z,100265.20
2019-03-26T01:13:24.740Z,100257.79
2019-03-26T01:15:54.158Z,100267.75
2019-03-26T01:18:23.673Z,100259.04
2019-03-26T01:20:53.114Z,100269.05
2019-03-26T01:23:23.549Z,100260.78
2019-03-26T01:25:53.156Z,100265.56
2019-03-26T01:28:22.630Z,100269.48
2019-03-26T01:30:52.456Z,100275.56
2019-03-26T01:33:21.964Z,100282.09
2019-03-26T01:35:51.383Z,100276.86
2019-03-26T01:38:20.843Z,100275.55
2019-03-26T01:40:50.279Z,100281.65
2019-03-26T01:43:20.777Z,100290.78
2019-03-26T01:45:50.292Z,100300.38
2019-03-26T01:48:19.886Z,100288.17
2019-03-26T01:50:49.475Z,100286.86
2019-03-26T01:53:20.291Z,100293.84
2019-03-26T01:55:49.953Z,100299.08
2019-03-26T01:58:19.510Z,100296.88
2019-03-26T02:00:49.056Z,100297.76
2019-03-26T02:03:18.586Z,100298.20
2019-03-26T02:05:48.134Z,100297.76
2019-03-26T02:08:17.904Z,100302.10
2019-03-26T02:10:47.390Z,100302.98
2019-03-26T02:13:16.930Z,100304.29
2019-03-26T02:15:46.371Z,100309.94
2019-03-26T02:18:15.867Z,100311.25
2019-03-26T02:20:45.297Z,100317.34
2019-03-26T02:23:14.789Z,100311.25
2019-03-26T02:25:44.198Z,100319.09
2019-03-26T02:28:13.924Z,100322.57
2019-03-26T02:30:43.410Z,100320.84
2019-03-26T02:33:12.901Z,100323.45
2019-03-26T02:35:42.497Z,100331.28
2019-03-26T02:38:11.977Z,100325.63
2019-03-26T02:40:41.405Z,100337.84
2019-03-26T02:43:10.876Z,100341.81
2019-03-26T02:45:40.468Z,100340.10
2019-03-26T02:48:10.061Z,100340.98
2019-03-26T02:50:39.493Z,100337.07
2019-03-26T02:53:09.145Z,100341.42
2019-03-26T02:55:39.091Z,100335.34
2019-03-26T02:58:08.553Z,100337.95
2019-03-26T03:00:38.008Z,100339.69
2019-03-26T03:03:07.513Z,100335.77
2019-03-26T03:05:36.934Z,100335.34
2019-03-26T03:08:06.419Z,100350.62
2019-03-26T03:10:36.123Z,100344.55
2019-03-26T03:13:05.536Z,100356.74
2019-03-26T03:15:35.004Z,100358.04
2019-03-26T03:18:04.641Z,100358.05
2019-03-26T03:20:34.055Z,100368.06
2019-03-26T03:23:03.679Z,100364.60
2019-03-26T03:25:33.088Z,100364.60
2019-03-26T03:28:02.597Z,100368.09
2019-03-26T03:30:32.016Z,100372.49
2019-03-26T03:33:01.472Z,100387.73
2019-03-26T03:35:30.871Z,100385.98
2019-03-26T03:38:00.337Z,100379.46
2019-03-26T03:40:29.822Z,100382.52
2019-03-26T03:42:59.290Z,100380.78
2019-03-26T03:45:29.267Z,100377.75
2019-03-26T03:47:59.402Z,100364.72
2019-03-26T03:50:30.858Z,100376.03
2019-03-26T03:53:00.961Z,100386.09
2019-03-26T03:55:31.511Z,100381.30
2019-03-26T03:58:01.993Z,100381.75
2019-03-26T04:00:40.029Z,100387.41
2019-03-26T04:03:10.238Z,100387.41
2019-03-26T04:05:39.987Z,100390.46
2019-03-26T04:08:09.538Z,100392.20
2019-03-26T04:10:39.019Z,100397.86
2019-03-26T04:13:08.603Z,100404.42
2019-03-26T04:15:38.192Z,100404.42
2019-03-26T04:18:07.700Z,100397.05
2019-03-26T04:20:37.115Z,100404.44
2019-03-26T04:23:06.691Z,100400.09
2019-03-26T04:25:37.383Z,100400.52
2019-03-26T04:28:07.006Z,100401.39
2019-03-26T04:30:36.477Z,100401.39
2019-03-26T04:33:06.050Z,100407.96
2019-03-26T04:35:36.522Z,100416.66
2019-03-26T04:38:06.058Z,100402.36
2019-03-26T04:40:35.621Z,100414.09
2019-03-26T04:43:06.069Z,100426.70
2019-03-26T04:45:35.521Z,100425.83
2019-03-26T04:48:04.991Z,100425.83
2019-03-26T04:50:34.632Z,100428.88
2019-03-26T04:53:06.016Z,100440.17
2019-03-26T04:55:35.492Z,100429.30
2019-03-26T04:58:05.001Z,100429.30
2019-03-26T05:00:39.008Z,100426.27
2019-03-26T05:03:08.487Z,100432.34
2019-03-26T05:05:42.012Z,100433.22
2019-03-26T05:08:11.602Z,100433.22
2019-03-26T05:10:41.240Z,100418.88
2019-03-26T05:13:10.706Z,100428.40
2019-03-26T05:15:40.644Z,100428.40
2019-03-26T05:18:10.109Z,100448.39
2019-03-26T05:20:39.620Z,100436.22
2019-03-26T05:23:09.108Z,100436.22
2019-03-26T05:25:38.567Z,100423.57
2019-03-26T05:28:07.987Z,100424.00
2019-03-26T05:30:37.486Z,100424.00
2019-03-26T05:33:06.916Z,100426.17
2019-03-26T05:35:36.330Z,100431.39
2019-03-26T05:38:05.777Z,100432.25
2019-03-26T05:40:36.192Z,100434.86
2019-03-26T05:43:05.652Z,100430.07
2019-03-26T05:45:36.033Z,100430.07
2019-03-26T05:48:05.525Z,100420.47
2019-03-26T05:50:35.019Z,100417.41
2019-03-26T05:53:04.632Z,100439.53
2019-03-26T05:55:35.180Z,100439.53
2019-03-26T05:58:04.709Z,100423.44
2019-03-26T06:00:34.131Z,100437.77
2019-03-26T06:03:03.573Z,100424.21
2019-03-26T06:05:32.983Z,100424.21
2019-03-26T06:08:03.536Z,100425.95
2019-03-26T06:10:32.969Z,100436.81
2019-03-26T06:13:03.400Z,100418.96
2019-03-26T06:15:33.203Z,100406.27
2019-03-26T06:18:03.555Z,100410.59
2019-03-26T06:20:32.996Z,100411.45
2019-03-26T06:23:02.494Z,100413.20
2019-03-26T06:25:31.936Z,100416.27
2019-03-26T06:28:01.346Z,100434.09
2019-03-26T06:30:30.770Z,100429.66
2019-03-26T06:33:00.181Z,100429.57
2019-03-26T06:35:30.567Z,100435.17
2019-03-26T06:37:59.975Z,100415.52
2019-03-26T06:40:29.404Z,100427.67
2019-03-26T06:42:58.824Z,100437.25
2019-03-26T06:45:28.398Z,100437.25
2019-03-26T06:47:57.884Z,100429.41
2019-03-26T06:50:27.432Z,100427.22
2019-03-26T06:52:56.896Z,100438.53
2019-03-26T06:55:26.332Z,100438.02
2019-03-26T06:57:56.706Z,100427.52
2019-03-26T07:00:35.456Z,100439.70
2019-03-26T07:03:07.204Z,100449.15
2019-03-26T07:05:36.664Z,100424.70
2019-03-26T07:08:06.073Z,100435.02
2019-03-26T07:10:35.666Z,100412.95
2019-03-26T07:13:05.068Z,100414.50
2019-03-26T07:15:34.483Z,100419.42
2019-03-26T07:18:04.028Z,100434.91
2019-03-26T07:20:33.446Z,100453.48
2019-03-26T07:23:03.009Z,100440.42
2019-03-26T07:25:32.617Z,100454.28
2019-03-26T07:28:01.999Z,100441.73
2019-03-26T07:30:39.213Z,100428.55
2019-03-26T07:33:09.051Z,100419.80
2019-03-26T07:35:38.643Z,100435.90
2019-03-26T07:38:09.247Z,100428.05
2019-03-26T07:40:38.735Z,100423.13
2019-03-26T07:43:11.458Z,100414.34
2019-03-26T07:45:41.011Z,100434.94
2019-03-26T07:48:10.470Z,100415.83
2019-03-26T07:50:40.023Z,100402.62
2019-03-26T07:53:09.450Z,100399.05
2019-03-26T07:55:38.908Z,100411.16
2019-03-26T07:58:08.307Z,100401.55
2019-03-26T08:00:38.462Z,100393.66
2019-03-26T08:03:08.012Z,100379.13
2019-03-26T08:05:37.583Z,100398.63
2019-03-26T08:08:07.059Z,100375.17
2019-03-26T08:10:36.490Z,100383.56
2019-03-26T08:13:06.200Z,100385.61
2019-03-26T08:15:35.631Z,100390.70
2019-03-26T08:18:04.999Z,100377.08
2019-03-26T08:20:34.466Z,100376.05
2019-03-26T08:23:03.947Z,100369.05
2019-03-26T08:25:34.064Z,100378.48
2019-03-26T08:28:05.083Z,100365.32
2019-03-26T08:30:35.763Z,100351.11
2019-03-26T08:33:05.245Z,100401.00
2019-03-26T08:35:35.771Z,100365.08
2019-03-26T08:38:12.497Z,100350.48
2019-03-26T08:40:36.360Z,100349.34
2019-03-26T08:43:05.952Z,100355.73
2019-03-26T08:45:36.278Z,100376.17
2019-03-26T08:48:06.041Z,100362.40
2019-03-26T08:50:35.470Z,100379.27
2019-03-26T08:53:05.187Z,100362.48
2019-03-26T08:55:34.650Z,100358.80
2019-03-26T08:58:04.187Z,100384.63
2019-03-26T09:00:35.596Z,100370.00
2019-03-26T09:03:05.166Z,100365.72
2019-03-26T09:05:34.592Z,100357.90
2019-03-26T09:08:04.128Z,100354.19
2019-03-26T09:10:33.546Z,100350.87
2019-03-26T09:13:02.981Z,100350.87
2019-03-26T09:15:33.473Z,100377.81
2019-03-26T09:18:02.995Z,100350.58
2019-03-26T09:20:32.462Z,100333.53
2019-03-26T09:23:01.952Z,100345.50
2019-03-26T09:25:31.350Z,100326.79
2019-03-26T09:28:00.790Z,100344.48
2019-03-26T09:30:30.196Z,100313.64
2019-03-26T09:32:59.658Z,100307.55
2019-03-26T09:35:29.068Z,100311.98
2019-03-26T09:37:58.490Z,100319.73
2019-03-26T09:40:27.990Z,100313.82
2019-03-26T09:42:57.612Z,100291.30
2019-03-26T09:45:33.249Z,100274.50
2019-03-26T09:48:02.698Z,100280.00
2019-03-26T09:50:36.494Z,100259.48
2019-03-26T09:53:06.002Z,100289.06
2019-03-26T09:55:35.532Z,100294.59
2019-03-26T09:58:05.060Z,100284.86
2019-03-26T10:00:34.587Z,100275.47
2019-03-26T10:03:04.100Z,100276.47
2019-03-26T10:05:33.515Z,100299.94
2019-03-26T10:08:03.015Z,100282.12
2019-03-26T10:10:32.419Z,100288.61
2019-03-26T10:13:02.050Z,100289.03
2019-03-26T10:15:31.467Z,100269.08
2019-03-26T10:18:01.905Z,100277.55
2019-03-26T10:20:31.313Z,100295.86
2019-03-26T10:23:00.735Z,100297.87
2019-03-26T10:25:30.143Z,100281.20
2019-03-26T10:27:59.560Z,100292.04
2019-03-26T10:30:33.888Z,100292.50
2019-03-26T10:33:03.579Z,100280.06
2019-03-26T10:35:33.172Z,100270.42
2019-03-26T10:38:02.767Z,100280.67
2019-03-26T10:40:37.059Z,100284.80
2019-03-26T10:43:06.982Z,100301.78
2019-03-26T10:45:36.537Z,100262.77
2019-03-26T10:48:06.009Z,100286.50
2019-03-26T10:50:35.471Z,100274.39
2019-03-26T10:53:04.972Z,100275.77
2019-03-26T10:55:34.426Z,100294.83
2019-03-26T10:58:04.049Z,100285.55
2019-03-26T11:00:33.470Z,100287.45
2019-03-26T11:03:02.897Z,100280.80
2019-03-26T11:05:32.293Z,100303.06
2019-03-26T11:08:01.775Z,100279.02
2019-03-26T11:10:31.350Z,100273.94
2019-03-26T11:13:00.799Z,100274.12
2019-03-26T11:15:30.397Z,100296.25
2019-03-26T11:18:00.023Z,100284.00
2019-03-26T11:20:29.545Z,100283.11
2019-03-26T11:23:00.053Z,100295.31
2019-03-26T11:25:29.492Z,100283.28
2019-03-26T11:27:58.971Z,100321.80
2019-03-26T11:30:28.448Z,100303.98
2019-03-26T11:32:57.874Z,100312.58
2019-03-26T11:35:27.412Z,100304.83
2019-03-26T11:37:58.849Z,100296.53
2019-03-26T11:40:28.386Z,100310.23
2019-03-26T11:42:57.880Z,100320.95
2019-03-26T11:45:27.308Z,100342.99
2019-03-26T11:47:56.717Z,100337.00
2019-03-26T11:50:26.315Z,100324.91
2019-03-26T11:52:55.734Z,100360.00
2019-03-26T11:55:25.141Z,100370.94
2019-03-26T11:57:54.594Z,100358.23
2019-03-26T12:00:31.759Z,100352.44
2019-03-26T12:03:01.314Z,100382.72
2019-03-26T12:05:30.717Z,100368.12
2019-03-26T12:08:00.154Z,100372.58
2019-03-26T12:10:29.552Z,100334.61
2019-03-26T12:12:59.107Z,100342.55
2019-03-26T12:15:28.522Z,100346.96
2019-03-26T12:17:57.994Z,100352.03
2019-03-26T12:20:27.508Z,100336.83
2019-03-26T12:22:56.932Z,100358.70
2019-03-26T12:25:26.350Z,100331.04
2019-03-26T12:27:55.781Z,100335.98
2019-03-26T12:30:34.144Z,100330.27
2019-03-26T12:33:03.945Z,100333.56
2019-03-26T12:35:33.526Z,100319.81
2019-03-26T12:38:17.532Z,100317.22
2019-03-26T12:40:47.118Z,100298.56
2019-03-26T12:43:16.673Z,100305.18
2019-03-26T12:45:46.239Z,100298.09
2019-03-26T12:48:15.756Z,100282.05
2019-03-26T12:50:46.354Z,100291.41
2019-03-26T12:53:15.897Z,100297.88
2019-03-26T12:55:45.411Z,100283.38
2019-03-26T12:58:14.870Z,100323.06
2019-03-26T13:00:44.333Z,100289.03
2019-03-26T13:03:13.735Z,100283.08
2019-03-26T13:05:44.316Z,100278.43
2019-03-26T13:08:16.842Z,100271.51
2019-03-26T13:10:53.609Z,100250.25
2019-03-26T13:13:17.354Z,100259.43
2019-03-26T13:15:47.061Z,100269.06
2019-03-26T13:18:16.491Z,100255.13
2019-03-26T13:20:45.919Z,100246.70
2019-03-26T13:23:15.406Z,100252.06
2019-03-26T13:25:44.886Z,100258.23
2019-03-26T13:28:14.320Z,100248.00
2019-03-26T13:30:43.808Z,100233.55
2019-03-26T13:33:13.354Z,100212.49
2019-03-26T13:35:42.765Z,100270.77
2019-03-26T13:38:12.183Z,100241.58
2019-03-26T13:40:41.697Z,100231.73
2019-03-26T13:43:11.228Z,100250.26
2019-03-26T13:45:40.719Z,100247.37
2019-03-26T13:48:10.139Z,100255.71
2019-03-26T13:50:39.720Z,100250.84
2019-03-26T13:53:09.205Z,100254.22
2019-03-26T13:55:38.735Z,100245.77
2019-03-26T13:58:08.154Z,100224.50
2019-03-26T14:00:39.267Z,100243.98
2019-03-26T14:03:09.996Z,100263.48
2019-03-26T14:05:39.424Z,100221.41
2019-03-26T14:08:09.013Z,100256.39
2019-03-26T14:10:41.186Z,100259.25
2019-03-26T14:13:11.120Z,100234.39
2019-03-26T14:15:40.609Z,100221.77
2019-03-26T14:18:10.097Z,100232.41
2019-03-26T14:20:39.589Z,100258.69
2019-03-26T14:23:09.071Z,100223.37
2019-03-26T14:25:40.632Z,100210.78
2019-03-26T14:28:10.182Z,100209.34
2019-03-26T14:30:44.322Z,100210.21
2019-03-26T14:33:13.800Z,100234.64
2019-03-26T14:35:43.357Z,100242.94
2019-03-26T14:38:13.053Z,100231.00
2019-03-26T14:40:54.155Z,100199.91
2019-03-26T14:43:13.709Z,100203.30
2019-03-26T14:45:43.194Z,100205.89
2019-03-26T14:48:12.711Z,100209.73
2019-03-26T14:50:42.148Z,100192.70
2019-03-26T14:53:11.644Z,100204.94
2019-03-26T14:55:41.088Z,100198.75
2019-03-26T14:58:10.505Z,100213.55
2019-03-26T15:00:40.221Z,100227.25
2019-03-26T15:03:09.722Z,100203.37
2019-03-26T15:05:39.344Z,100197.34
2019-03-26T15:08:09.912Z,100215.31
2019-03-26T15:10:39.401Z,100188.58
2019-03-26T15:13:08.797Z,100198.44
2019-03-26T15:15:38.286Z,100200.13
2019-03-26T15:18:07.830Z,100195.64
2019-03-26T15:20:37.476Z,100181.17
2019-03-26T15:23:06.981Z,100190.02
2019-03-26T15:25:36.534Z,100226.00
2019-03-26T15:28:06.001Z,100215.47
2019-03-26T15:30:35.903Z,100195.74
2019-03-26T15:33:06.036Z,100196.58
2019-03-26T15:35:35.588Z,100220.56
2019-03-26T15:38:05.145Z,100217.80
2019-03-26T15:40:34.703Z,100209.00
2019-03-26T15:43:04.298Z,100212.52
2019-03-26T15:45:33.805Z,100212.65
2019-03-26T15:48:03.245Z,100223.22
2019-03-26T15:50:44.366Z,100217.17
2019-03-26T15:53:14.743Z,100210.19
2019-03-26T15:55:44.609Z,100212.39
2019-03-26T15:58:14.091Z,100211.98
2019-03-26T16:00:43.573Z,100208.88
2019-03-26T16:03:13.070Z,100203.20
2019-03-26T16:05:42.555Z,100217.20
2019-03-26T16:08:12.053Z,100202.83
2019-03-26T16:10:41.460Z,100205.99
2019-03-26T16:13:10.889Z,100204.27
2019-03-26T16:15:44.651Z,100210.86
2019-03-26T16:18:12.351Z,100208.33
2019-03-26T16:20:41.754Z,100218.38
2019-03-26T16:23:11.197Z,100218.38
2019-03-26T16:25:40.599Z,100218.00
2019-03-26T16:28:10.030Z,100211.94
2019-03-26T16:30:39.448Z,100243.05
2019-03-26T16:33:08.877Z,100227.30
2019-03-26T16:35:40.406Z,100228.72
2019-03-26T16:38:10.017Z,100226.50
2019-03-26T16:40:39.432Z,100219.44
2019-03-26T16:43:09.012Z,100215.14
2019-03-26T16:45:38.582Z,100225.58
2019-03-26T16:48:08.002Z,100217.70
2019-03-26T16:50:37.513Z,100222.95
2019-03-26T16:53:07.049Z,100221.28
2019-03-26T16:55:36.590Z,100232.70
2019-03-26T16:58:06.118Z,100241.66
2019-03-26T17:00:35.846Z,100244.01
2019-03-26T17:03:05.713Z,100263.27
2019-03-26T17:10:10.850Z,100316.80
2019-03-26T17:16:20.960Z,100292.83
2019-03-26T17:18:51.481Z,100292.83
2019-03-26T17:21:22.022Z,100288.37
2019-03-26T17:27:32.298Z,100299.91
2019-03-26T17:30:01.703Z,100302.66
2019-03-26T17:32:31.367Z,100313.09
2019-03-26T17:35:02.847Z,100333.53
2019-03-26T17:37:32.303Z,100311.66
2019-03-26T17:40:01.709Z,100308.16
2019-03-26T17:42:31.365Z,100326.01
2019-03-26T17:45:00.783Z,100303.31
2019-03-26T17:47:30.404Z,100310.63
2019-03-26T17:50:00.956Z,100317.10
2019-03-26T17:52:30.548Z,100317.42
2019-03-26T17:54:59.954Z,100334.78
2019-03-26T17:57:29.464Z,100334.78
2019-03-26T17:59:58.909Z,100337.83
2019-03-26T18:02:28.494Z,100340.41
2019-03-26T18:04:59.124Z,100339.95
2019-03-26T18:07:28.528Z,100340.81
2019-03-26T18:09:58.013Z,100344.67
2019-03-26T18:12:30.962Z,100344.67
2019-03-26T18:14:58.737Z,100354.70
2019-03-26T18:17:30.682Z,100355.53
2019-03-26T18:20:00.384Z,100368.19
2019-03-26T18:22:29.887Z,100368.19
2019-03-26T18:24:59.315Z,100361.65
2019-03-26T18:27:30.455Z,100370.39
2019-03-26T18:30:01.962Z,100372.13
2019-03-26T18:32:31.501Z,100374.73
2019-03-26T18:35:01.058Z,100371.66
2019-03-26T18:37:30.530Z,100365.56
2019-03-26T18:40:00.361Z,100360.30
2019-03-26T18:42:43.171Z,100363.77
2019-03-26T18:45:00.972Z,100362.89
2019-03-26T18:47:30.515Z,100377.20
2019-03-26T18:49:59.977Z,100369.73
2019-03-26T18:52:29.391Z,100387.14
2019-03-26T18:54:58.841Z,100379.69
2019-03-26T18:57:28.384Z,100389.27
2019-03-26T18:59:58.930Z,100397.13
2019-03-26T19:02:28.400Z,100393.20
2019-03-26T19:04:57.959Z,100400.63
2019-03-26T19:07:27.450Z,100415.04
2019-03-26T19:09:56.875Z,100410.26
2019-03-26T19:12:26.284Z,100415.95
2019-03-26T19:14:55.748Z,100411.61
2019-03-26T19:17:25.162Z,100411.61
2019-03-26T19:19:54.589Z,100422.06
2019-03-26T19:22:24.169Z,100426.89
2019-03-26T19:24:53.765Z,100432.63
2019-03-26T19:27:24.326Z,100433.08
2019-03-26T19:29:53.828Z,100444.45
2019-03-26T19:32:23.375Z,100435.78
2019-03-26T19:34:52.956Z,100446.24
2019-03-26T19:37:22.347Z,100434.95
2019-03-26T19:39:51.765Z,100449.81
2019-03-26T19:42:21.180Z,100458.97
2019-03-26T19:44:50.619Z,100451.55
2019-03-26T19:47:20.171Z,100454.21
2019-03-26T19:49:49.603Z,100451.64
2019-03-26T19:52:19.082Z,100452.60
2019-03-26T19:54:48.579Z,100463.55
2019-03-26T19:57:18.062Z,100472.39
2019-03-26T19:59:47.597Z,100472.39
2019-03-26T20:02:17.076Z,100485.89
2019-03-26T20:04:46.611Z,100491.16
2019-03-26T20:07:16.095Z,100493.84
2019-03-26T20:09:45.521Z,100502.56
2019-03-26T20:12:15.022Z,100519.56
2019-03-26T20:14:44.486Z,100509.55
2019-03-26T20:17:14.029Z,100510.86
2019-03-26T20:19:43.509Z,100513.92
2019-03-26T20:22:12.990Z,100517.86
2019-03-26T20:24:44.266Z,100518.73
2019-03-26T20:27:13.754Z,100516.62
2019-03-26T20:29:43.266Z,100522.72
2019-03-26T20:32:12.670Z,100537.10
2019-03-26T20:34:42.406Z,100532.31
2019-03-26T20:37:12.244Z,100531.90
2019-03-26T20:39:41.645Z,100538.87
2019-03-26T20:42:11.139Z,100544.14
2019-03-26T20:44:41.778Z,100546.33
2019-03-26T20:47:11.267Z,100550.23
2019-03-26T20:49:40.789Z,100551.50
2019-03-26T20:52:10.495Z,100561.94
2019-03-26T20:54:40.001Z,100565.41
2019-03-26T20:57:09.625Z,100568.45
2019-03-26T20:59:39.167Z,100572.80
2019-03-26T21:02:08.735Z,100582.33
2019-03-26T21:04:38.493Z,100584.92
2019-03-26T21:07:08.023Z,100590.13
2019-03-26T21:09:37.580Z,100597.49
2019-03-26T21:12:07.090Z,100597.48
2019-03-26T21:14:36.568Z,100608.80
2019-03-26T21:17:06.129Z,100614.03
2019-03-26T21:19:35.535Z,100622.75
2019-03-26T21:22:05.022Z,100627.98
2019-03-26T21:24:34.509Z,100631.53
2019-03-26T21:27:04.041Z,100631.54
2019-03-26T21:29:33.523Z,100632.41
2019-03-26T21:32:03.057Z,100644.19
2019-03-26T21:34:32.707Z,100649.42
2019-03-26T21:37:02.384Z,100649.89
2019-03-26T21:39:31.786Z,100649.89
2019-03-26T21:42:01.237Z,100652.95
2019-03-26T21:44:31.715Z,100659.92
2019-03-26T21:47:01.246Z,100661.22
2019-03-26T21:49:30.717Z,100662.97
2019-03-26T21:52:00.266Z,100665.15
2019-03-26T21:54:29.752Z,100669.50
2019-03-26T21:56:59.286Z,100666.02
2019-03-26T21:59:28.833Z,100669.07
2019-03-26T22:01:58.344Z,100670.38
2019-03-26T22:04:27.931Z,100672.12
2019-03-26T22:06:58.442Z,100678.65
2019-03-26T22:09:28.039Z,100673.86
2019-03-26T22:11:57.691Z,100669.95
2019-03-26T22:14:27.272Z,100675.17
2019-03-26T22:16:56.831Z,100676.05
2019-03-26T22:19:28.908Z,100680.40
2019-03-26T22:21:57.641Z,100686.06
2019-03-26T22:24:27.115Z,100688.23
2019-03-26T22:26:56.646Z,100688.23
2019-03-26T22:29:26.117Z,100690.41
2019-03-26T22:31:55.639Z,100698.69
2019-03-26T22:34:25.044Z,100694.34
2019-03-26T22:36:54.553Z,100702.61
2019-03-26T22:39:24.029Z,100702.64
2019-03-26T22:41:53.497Z,100704.39
2019-03-26T22:44:31.341Z,100716.14
2019-03-26T22:46:54.061Z,100716.14
2019-03-26T22:49:23.645Z,100721.37
2019-03-26T22:51:53.138Z,100727.47
2019-03-26T22:54:23.620Z,100727.03
2019-03-26T22:56:53.136Z,100725.73
2019-03-26T22:59:22.562Z,100727.03
2019-03-26T23:01:53.454Z,100733.56
2019-03-26T23:04:23.030Z,100740.09
2019-03-26T23:06:52.622Z,100739.22
2019-03-26T23:09:23.207Z,100736.17
2019-03-26T23:11:53.144Z,100737.92
2019-03-26T23:14:22.872Z,100744.02
2019-03-26T23:16:52.552Z,100747.06
2019-03-26T23:19:22.115Z,100749.67
2019-03-26T23:21:51.572Z,100748.37
2019-03-26T23:24:21.001Z,100755.77
2019-03-26T23:26:50.462Z,100755.33
2019-03-26T23:29:20.049Z,100757.53
2019-03-26T23:31:49.600Z,100763.19
2019-03-26T23:34:19.149Z,100760.58
2019-03-26T23:36:48.620Z,100764.48
2019-03-26T23:39:18.143Z,100767.53
2019-03-26T23:41:47.612Z,100774.08
2019-03-26T23:44:25.771Z,100775.81
2019-03-26T23:46:48.156Z,100775.80
2019-03-26T23:49:19.554Z,100768.84
2019-03-26T23:51:48.976Z,100771.01
2019-03-26T23:54:18.523Z,100772.77
2019-03-26T23:56:47.991Z,100773.19
2019-03-26T23:59:17.497Z,100775.80
